sensor_id;sensor_type;location;lat;lon;timestamp;P1;durP1;ratioP1;P2;durP2;ratioP2
70233;SDS011;57622;42.630;23.378;2022-08-03T00:01:27;3.25;;;1.65;;
70233;SDS011;57622;42.630;23.378;2022-08-03T00:03:52;3.95;;;1.55;;
70233;SDS011;57622;42.630;23.378;2022-08-03T00:06:18;3.42;;;1.67;;
70233;SDS011;57622;42.630;23.378;2022-08-03T00:08:43;4.05;;;1.60;;
70233;SDS011;57622;42.630;23.378;2022-08-03T00:11:09;3.13;;;1.60;;
70233;SDS011;57622;42.630;23.378;2022-08-03T00:13:34;3.30;;;1.50;;
70233;SDS011;57622;42.630;23.378;2022-08-03T00:16:00;2.38;;;1.50;;
70233;SDS011;57622;42.630;23.378;2022-08-03T00:18:26;3.55;;;1.50;;
70233;SDS011;57622;42.630;23.378;2022-08-03T00:20:51;2.28;;;1.40;;
70233;SDS011;57622;42.630;23.378;2022-08-03T00:23:17;1.67;;;1.45;;
70233;SDS011;57622;42.630;23.378;2022-08-03T00:25:42;4.25;;;1.80;;
70233;SDS011;57622;42.630;23.378;2022-08-03T00:28:08;2.53;;;1.60;;
70233;SDS011;57622;42.630;23.378;2022-08-03T00:30:33;3.00;;;1.80;;
70233;SDS011;57622;42.630;23.378;2022-08-03T00:33:00;2.92;;;1.80;;
70233;SDS011;57622;42.630;23.378;2022-08-03T00:35:26;2.20;;;1.42;;
70233;SDS011;57622;42.630;23.378;2022-08-03T00:37:52;4.40;;;1.60;;
70233;SDS011;57622;42.630;23.378;2022-08-03T00:40:18;2.67;;;1.50;;
70233;SDS011;57622;42.630;23.378;2022-08-03T00:45:23;2.53;;;1.47;;
70233;SDS011;57622;42.630;23.378;2022-08-03T00:47:53;4.07;;;1.70;;
70233;SDS011;57622;42.630;23.378;2022-08-03T00:50:20;2.35;;;1.63;;
70233;SDS011;57622;42.630;23.378;2022-08-03T00:52:47;4.68;;;1.70;;
70233;SDS011;57622;42.630;23.378;2022-08-03T00:55:13;2.15;;;1.50;;
70233;SDS011;57622;42.630;23.378;2022-08-03T00:57:40;3.72;;;1.70;;
70233;SDS011;57622;42.630;23.378;2022-08-03T01:00:07;2.13;;;1.52;;
70233;SDS011;57622;42.630;23.378;2022-08-03T01:02:34;4.30;;;1.90;;
70233;SDS011;57622;42.630;23.378;2022-08-03T01:05:00;3.45;;;1.60;;
70233;SDS011;57622;42.630;23.378;2022-08-03T01:07:31;3.92;;;1.63;;
70233;SDS011;57622;42.630;23.378;2022-08-03T01:21:37;2.22;;;1.55;;
70233;SDS011;57622;42.630;23.378;2022-08-03T01:32:17;2.58;;;1.70;;
70233;SDS011;57622;42.630;23.378;2022-08-03T01:34:47;3.85;;;1.70;;
70233;SDS011;57622;42.630;23.378;2022-08-03T01:37:36;3.65;;;1.70;;
70233;SDS011;57622;42.630;23.378;2022-08-03T01:40:05;3.35;;;1.67;;
70233;SDS011;57622;42.630;23.378;2022-08-03T01:42:31;1.92;;;1.50;;
70233;SDS011;57622;42.630;23.378;2022-08-03T01:44:58;3.83;;;1.80;;
70233;SDS011;57622;42.630;23.378;2022-08-03T01:47:26;3.50;;;1.98;;
70233;SDS011;57622;42.630;23.378;2022-08-03T01:49:53;4.25;;;1.73;;
70233;SDS011;57622;42.630;23.378;2022-08-03T01:52:21;3.35;;;1.67;;
70233;SDS011;57622;42.630;23.378;2022-08-03T01:54:49;2.15;;;1.60;;
70233;SDS011;57622;42.630;23.378;2022-08-03T01:57:17;3.70;;;1.80;;
70233;SDS011;57622;42.630;23.378;2022-08-03T01:59:44;4.80;;;1.90;;
70233;SDS011;57622;42.630;23.378;2022-08-03T02:02:13;4.88;;;1.83;;
70233;SDS011;57622;42.630;23.378;2022-08-03T02:04:41;4.63;;;2.05;;
70233;SDS011;57622;42.630;23.378;2022-08-03T02:07:08;3.38;;;2.00;;
70233;SDS011;57622;42.630;23.378;2022-08-03T02:09:36;3.97;;;1.98;;
70233;SDS011;57622;42.630;23.378;2022-08-03T02:12:06;4.35;;;1.80;;
70233;SDS011;57622;42.630;23.378;2022-08-03T02:14:33;4.38;;;1.95;;
70233;SDS011;57622;42.630;23.378;2022-08-03T02:16:59;7.07;;;2.90;;
70233;SDS011;57622;42.630;23.378;2022-08-03T02:19:27;4.28;;;2.20;;
70233;SDS011;57622;42.630;23.378;2022-08-03T02:21:54;4.40;;;2.05;;
70233;SDS011;57622;42.630;23.378;2022-08-03T02:24:21;3.72;;;2.00;;
70233;SDS011;57622;42.630;23.378;2022-08-03T02:26:47;4.43;;;1.80;;
70233;SDS011;57622;42.630;23.378;2022-08-03T02:29:17;2.60;;;1.85;;
70233;SDS011;57622;42.630;23.378;2022-08-03T02:31:45;3.63;;;1.92;;
70233;SDS011;57622;42.630;23.378;2022-08-03T02:34:13;6.25;;;1.70;;
70233;SDS011;57622;42.630;23.378;2022-08-03T02:36:41;3.92;;;1.70;;
70233;SDS011;57622;42.630;23.378;2022-08-03T02:39:10;4.30;;;1.70;;
70233;SDS011;57622;42.630;23.378;2022-08-03T02:41:44;3.92;;;1.80;;
70233;SDS011;57622;42.630;23.378;2022-08-03T02:44:13;5.43;;;1.92;;
70233;SDS011;57622;42.630;23.378;2022-08-03T02:46:43;4.07;;;1.95;;
70233;SDS011;57622;42.630;23.378;2022-08-03T02:49:11;4.95;;;2.10;;
70233;SDS011;57622;42.630;23.378;2022-08-03T02:51:38;5.07;;;2.00;;
70233;SDS011;57622;42.630;23.378;2022-08-03T02:54:05;4.35;;;2.00;;
70233;SDS011;57622;42.630;23.378;2022-08-03T02:56:33;5.18;;;2.20;;
70233;SDS011;57622;42.630;23.378;2022-08-03T02:58:59;3.97;;;2.10;;
70233;SDS011;57622;42.630;23.378;2022-08-03T03:01:27;4.30;;;2.10;;
70233;SDS011;57622;42.630;23.378;2022-08-03T03:03:54;5.43;;;1.80;;
70233;SDS011;57622;42.630;23.378;2022-08-03T03:06:21;3.40;;;2.00;;
70233;SDS011;57622;42.630;23.378;2022-08-03T03:08:52;4.57;;;2.10;;
70233;SDS011;57622;42.630;23.378;2022-08-03T03:11:18;7.07;;;2.10;;
70233;SDS011;57622;42.630;23.378;2022-08-03T03:13:45;3.67;;;1.90;;
70233;SDS011;57622;42.630;23.378;2022-08-03T03:16:12;4.55;;;1.80;;
70233;SDS011;57622;42.630;23.378;2022-08-03T03:18:39;6.80;;;1.88;;
70233;SDS011;57622;42.630;23.378;2022-08-03T03:21:07;3.35;;;1.92;;
70233;SDS011;57622;42.630;23.378;2022-08-03T03:23:34;3.33;;;1.92;;
70233;SDS011;57622;42.630;23.378;2022-08-03T03:26:02;6.60;;;2.20;;
70233;SDS011;57622;42.630;23.378;2022-08-03T03:28:28;2.85;;;1.85;;
70233;SDS011;57622;42.630;23.378;2022-08-03T03:30:55;4.90;;;2.10;;
70233;SDS011;57622;42.630;23.378;2022-08-03T03:33:21;5.60;;;2.10;;
70233;SDS011;57622;42.630;23.378;2022-08-03T03:35:47;5.40;;;2.10;;
70233;SDS011;57622;42.630;23.378;2022-08-03T03:38:12;5.20;;;1.90;;
70233;SDS011;57622;42.630;23.378;2022-08-03T03:40:38;4.55;;;2.78;;
70233;SDS011;57622;42.630;23.378;2022-08-03T03:43:06;3.50;;;2.03;;
70233;SDS011;57622;42.630;23.378;2022-08-03T03:45:33;5.20;;;2.08;;
70233;SDS011;57622;42.630;23.378;2022-08-03T03:48:05;3.83;;;2.00;;
70233;SDS011;57622;42.630;23.378;2022-08-03T03:50:32;5.25;;;2.33;;
70233;SDS011;57622;42.630;23.378;2022-08-03T03:53:02;3.83;;;2.00;;
70233;SDS011;57622;42.630;23.378;2022-08-03T03:55:28;6.75;;;2.42;;
70233;SDS011;57622;42.630;23.378;2022-08-03T03:57:54;5.38;;;2.30;;
70233;SDS011;57622;42.630;23.378;2022-08-03T04:00:21;5.70;;;2.42;;
70233;SDS011;57622;42.630;23.378;2022-08-03T04:02:46;6.03;;;2.10;;
70233;SDS011;57622;42.630;23.378;2022-08-03T04:05:13;7.55;;;2.55;;
70233;SDS011;57622;42.630;23.378;2022-08-03T04:07:58;6.20;;;2.50;;
70233;SDS011;57622;42.630;23.378;2022-08-03T04:10:53;4.72;;;2.30;;
70233;SDS011;57622;42.630;23.378;2022-08-03T04:13:28;5.72;;;2.42;;
70233;SDS011;57622;42.630;23.378;2022-08-03T04:16:15;4.95;;;2.55;;
70233;SDS011;57622;42.630;23.378;2022-08-03T04:18:45;5.38;;;2.42;;
70233;SDS011;57622;42.630;23.378;2022-08-03T04:21:16;5.47;;;2.50;;
70233;SDS011;57622;42.630;23.378;2022-08-03T04:23:47;6.18;;;2.40;;
70233;SDS011;57622;42.630;23.378;2022-08-03T04:26:17;7.57;;;2.40;;
70233;SDS011;57622;42.630;23.378;2022-08-03T04:28:45;6.28;;;2.60;;
70233;SDS011;57622;42.630;23.378;2022-08-03T04:31:13;6.65;;;2.50;;
70233;SDS011;57622;42.630;23.378;2022-08-03T04:33:40;6.57;;;2.60;;
70233;SDS011;57622;42.630;23.378;2022-08-03T04:36:11;7.93;;;2.72;;
70233;SDS011;57622;42.630;23.378;2022-08-03T04:39:01;5.93;;;2.67;;
70233;SDS011;57622;42.630;23.378;2022-08-03T04:41:30;5.63;;;2.63;;
70233;SDS011;57622;42.630;23.378;2022-08-03T04:43:58;6.53;;;2.72;;
70233;SDS011;57622;42.630;23.378;2022-08-03T04:46:25;6.25;;;2.75;;
70233;SDS011;57622;42.630;23.378;2022-08-03T04:48:53;6.68;;;2.75;;
70233;SDS011;57622;42.630;23.378;2022-08-03T04:51:20;7.68;;;2.83;;
70233;SDS011;57622;42.630;23.378;2022-08-03T04:53:46;6.80;;;2.38;;
70233;SDS011;57622;42.630;23.378;2022-08-03T04:56:11;8.50;;;2.85;;
70233;SDS011;57622;42.630;23.378;2022-08-03T04:58:37;9.20;;;3.25;;
70233;SDS011;57622;42.630;23.378;2022-08-03T05:01:02;8.07;;;2.55;;
70233;SDS011;57622;42.630;23.378;2022-08-03T05:03:28;5.65;;;2.58;;
70233;SDS011;57622;42.630;23.378;2022-08-03T05:05:53;5.18;;;2.55;;
70233;SDS011;57622;42.630;23.378;2022-08-03T05:08:19;7.28;;;2.28;;
70233;SDS011;57622;42.630;23.378;2022-08-03T05:10:45;5.78;;;2.25;;
70233;SDS011;57622;42.630;23.378;2022-08-03T05:13:11;5.40;;;2.40;;
70233;SDS011;57622;42.630;23.378;2022-08-03T05:15:37;5.15;;;2.38;;
70233;SDS011;57622;42.630;23.378;2022-08-03T05:18:03;7.25;;;2.75;;
70233;SDS011;57622;42.630;23.378;2022-08-03T05:20:29;6.03;;;2.50;;
70233;SDS011;57622;42.630;23.378;2022-08-03T05:22:55;9.20;;;3.38;;
70233;SDS011;57622;42.630;23.378;2022-08-03T05:25:21;8.60;;;2.90;;
70233;SDS011;57622;42.630;23.378;2022-08-03T05:27:46;9.45;;;3.38;;
70233;SDS011;57622;42.630;23.378;2022-08-03T05:30:12;7.70;;;3.10;;
70233;SDS011;57622;42.630;23.378;2022-08-03T05:32:38;8.90;;;3.10;;
70233;SDS011;57622;42.630;23.378;2022-08-03T05:35:03;7.80;;;2.83;;
70233;SDS011;57622;42.630;23.378;2022-08-03T05:37:29;8.77;;;3.25;;
70233;SDS011;57622;42.630;23.378;2022-08-03T05:39:54;9.90;;;3.33;;
70233;SDS011;57622;42.630;23.378;2022-08-03T05:42:20;8.50;;;2.83;;
70233;SDS011;57622;42.630;23.378;2022-08-03T05:44:45;9.00;;;3.22;;
70233;SDS011;57622;42.630;23.378;2022-08-03T05:47:11;10.20;;;3.67;;
70233;SDS011;57622;42.630;23.378;2022-08-03T05:49:36;9.98;;;3.60;;
70233;SDS011;57622;42.630;23.378;2022-08-03T05:52:02;10.80;;;3.53;;
70233;SDS011;57622;42.630;23.378;2022-08-03T05:54:28;8.35;;;3.30;;
70233;SDS011;57622;42.630;23.378;2022-08-03T05:56:53;8.23;;;3.42;;
70233;SDS011;57622;42.630;23.378;2022-08-03T05:59:18;10.52;;;3.47;;
70233;SDS011;57622;42.630;23.378;2022-08-03T06:01:45;8.98;;;3.65;;
70233;SDS011;57622;42.630;23.378;2022-08-03T06:04:11;8.20;;;3.25;;
70233;SDS011;57622;42.630;23.378;2022-08-03T06:06:36;7.55;;;3.45;;
70233;SDS011;57622;42.630;23.378;2022-08-03T06:09:02;9.80;;;3.70;;
70233;SDS011;57622;42.630;23.378;2022-08-03T06:11:27;6.88;;;3.10;;
70233;SDS011;57622;42.630;23.378;2022-08-03T06:13:53;10.30;;;3.40;;
70233;SDS011;57622;42.630;23.378;2022-08-03T06:16:18;9.30;;;3.03;;
70233;SDS011;57622;42.630;23.378;2022-08-03T06:18:43;9.57;;;3.13;;
70233;SDS011;57622;42.630;23.378;2022-08-03T06:21:10;9.50;;;3.00;;
70233;SDS011;57622;42.630;23.378;2022-08-03T06:23:35;8.88;;;3.20;;
70233;SDS011;57622;42.630;23.378;2022-08-03T06:26:01;9.07;;;2.90;;
70233;SDS011;57622;42.630;23.378;2022-08-03T06:28:27;10.48;;;2.95;;
70233;SDS011;57622;42.630;23.378;2022-08-03T06:30:52;8.80;;;2.80;;
70233;SDS011;57622;42.630;23.378;2022-08-03T06:33:18;7.97;;;2.67;;
70233;SDS011;57622;42.630;23.378;2022-08-03T06:35:44;5.97;;;2.53;;
70233;SDS011;57622;42.630;23.378;2022-08-03T06:38:09;5.35;;;2.55;;
70233;SDS011;57622;42.630;23.378;2022-08-03T06:40:35;7.65;;;2.65;;
70233;SDS011;57622;42.630;23.378;2022-08-03T06:43:04;8.27;;;2.97;;
70233;SDS011;57622;42.630;23.378;2022-08-03T06:45:31;7.47;;;2.95;;
70233;SDS011;57622;42.630;23.378;2022-08-03T06:50:33;8.15;;;2.95;;
70233;SDS011;57622;42.630;23.378;2022-08-03T06:53:00;14.07;;;4.07;;
70233;SDS011;57622;42.630;23.378;2022-08-03T06:55:26;5.97;;;2.50;;
70233;SDS011;57622;42.630;23.378;2022-08-03T06:57:52;7.82;;;2.63;;
70233;SDS011;57622;42.630;23.378;2022-08-03T07:00:18;7.10;;;3.00;;
70233;SDS011;57622;42.630;23.378;2022-08-03T07:02:44;8.43;;;2.75;;
70233;SDS011;57622;42.630;23.378;2022-08-03T07:05:10;9.43;;;3.55;;
70233;SDS011;57622;42.630;23.378;2022-08-03T07:07:36;9.70;;;3.00;;
70233;SDS011;57622;42.630;23.378;2022-08-03T07:10:02;8.27;;;3.30;;
70233;SDS011;57622;42.630;23.378;2022-08-03T07:12:29;9.68;;;3.05;;
70233;SDS011;57622;42.630;23.378;2022-08-03T07:14:55;9.40;;;3.50;;
70233;SDS011;57622;42.630;23.378;2022-08-03T07:17:22;7.85;;;2.90;;
70233;SDS011;57622;42.630;23.378;2022-08-03T07:19:48;12.13;;;3.10;;
70233;SDS011;57622;42.630;23.378;2022-08-03T07:22:13;9.57;;;3.53;;
70233;SDS011;57622;42.630;23.378;2022-08-03T07:24:39;7.93;;;3.30;;
70233;SDS011;57622;42.630;23.378;2022-08-03T07:27:05;8.15;;;2.75;;
70233;SDS011;57622;42.630;23.378;2022-08-03T07:29:32;7.60;;;2.65;;
70233;SDS011;57622;42.630;23.378;2022-08-03T07:31:58;8.85;;;2.90;;
70233;SDS011;57622;42.630;23.378;2022-08-03T07:34:24;8.15;;;2.80;;
70233;SDS011;57622;42.630;23.378;2022-08-03T07:36:49;8.18;;;3.08;;
70233;SDS011;57622;42.630;23.378;2022-08-03T07:39:15;8.18;;;3.38;;
70233;SDS011;57622;42.630;23.378;2022-08-03T07:41:40;10.98;;;3.53;;
70233;SDS011;57622;42.630;23.378;2022-08-03T07:44:06;8.93;;;3.28;;
70233;SDS011;57622;42.630;23.378;2022-08-03T07:46:31;8.00;;;3.65;;
70233;SDS011;57622;42.630;23.378;2022-08-03T07:48:57;8.55;;;3.35;;
70233;SDS011;57622;42.630;23.378;2022-08-03T07:51:23;11.48;;;3.40;;
70233;SDS011;57622;42.630;23.378;2022-08-03T07:53:48;10.95;;;3.95;;
70233;SDS011;57622;42.630;23.378;2022-08-03T07:56:14;9.65;;;3.55;;
70233;SDS011;57622;42.630;23.378;2022-08-03T07:58:40;10.00;;;3.40;;
70233;SDS011;57622;42.630;23.378;2022-08-03T08:01:06;8.85;;;3.70;;
70233;SDS011;57622;42.630;23.378;2022-08-03T08:03:31;10.18;;;3.53;;
70233;SDS011;57622;42.630;23.378;2022-08-03T08:05:57;7.82;;;3.30;;
70233;SDS011;57622;42.630;23.378;2022-08-03T08:08:22;9.25;;;3.38;;
70233;SDS011;57622;42.630;23.378;2022-08-03T08:10:48;8.07;;;3.60;;
70233;SDS011;57622;42.630;23.378;2022-08-03T08:13:14;8.15;;;3.25;;
70233;SDS011;57622;42.630;23.378;2022-08-03T08:15:39;6.72;;;2.90;;
70233;SDS011;57622;42.630;23.378;2022-08-03T08:18:04;7.85;;;3.45;;
70233;SDS011;57622;42.630;23.378;2022-08-03T08:20:31;8.63;;;2.85;;
70233;SDS011;57622;42.630;23.378;2022-08-03T08:22:59;8.43;;;3.00;;
70233;SDS011;57622;42.630;23.378;2022-08-03T08:25:25;8.82;;;3.25;;
70233;SDS011;57622;42.630;23.378;2022-08-03T08:27:51;12.80;;;3.25;;
70233;SDS011;57622;42.630;23.378;2022-08-03T08:30:19;11.23;;;3.20;;
70233;SDS011;57622;42.630;23.378;2022-08-03T08:32:46;8.70;;;3.40;;
70233;SDS011;57622;42.630;23.378;2022-08-03T08:35:12;9.68;;;3.47;;
70233;SDS011;57622;42.630;23.378;2022-08-03T08:37:38;9.55;;;3.78;;
70233;SDS011;57622;42.630;23.378;2022-08-03T08:40:05;11.07;;;3.20;;
70233;SDS011;57622;42.630;23.378;2022-08-03T08:42:32;11.35;;;3.67;;
70233;SDS011;57622;42.630;23.378;2022-08-03T08:44:59;10.93;;;3.40;;
70233;SDS011;57622;42.630;23.378;2022-08-03T08:47:25;7.40;;;3.30;;
70233;SDS011;57622;42.630;23.378;2022-08-03T08:49:54;9.35;;;3.25;;
70233;SDS011;57622;42.630;23.378;2022-08-03T08:52:23;10.90;;;3.55;;
70233;SDS011;57622;42.630;23.378;2022-08-03T08:54:51;10.50;;;3.40;;
70233;SDS011;57622;42.630;23.378;2022-08-03T08:57:21;9.25;;;3.13;;
70233;SDS011;57622;42.630;23.378;2022-08-03T08:59:50;9.57;;;3.20;;
70233;SDS011;57622;42.630;23.378;2022-08-03T09:02:19;7.40;;;3.13;;
70233;SDS011;57622;42.630;23.378;2022-08-03T09:04:44;7.50;;;3.20;;
70233;SDS011;57622;42.630;23.378;2022-08-03T09:07:12;8.55;;;2.80;;
70233;SDS011;57622;42.630;23.378;2022-08-03T09:09:38;9.57;;;3.13;;
70233;SDS011;57622;42.630;23.378;2022-08-03T09:12:03;14.02;;;3.70;;
70233;SDS011;57622;42.630;23.378;2022-08-03T09:14:29;9.63;;;3.55;;
70233;SDS011;57622;42.630;23.378;2022-08-03T09:16:58;13.57;;;3.33;;
70233;SDS011;57622;42.630;23.378;2022-08-03T09:19:29;8.65;;;3.05;;
70233;SDS011;57622;42.630;23.378;2022-08-03T09:22:08;8.95;;;3.00;;
70233;SDS011;57622;42.630;23.378;2022-08-03T09:24:37;8.82;;;3.55;;
70233;SDS011;57622;42.630;23.378;2022-08-03T09:27:19;6.43;;;2.60;;
70233;SDS011;57622;42.630;23.378;2022-08-03T09:29:49;7.32;;;3.03;;
70233;SDS011;57622;42.630;23.378;2022-08-03T09:32:19;9.00;;;2.70;;
70233;SDS011;57622;42.630;23.378;2022-08-03T09:34:47;6.65;;;2.60;;
70233;SDS011;57622;42.630;23.378;2022-08-03T09:37:14;6.63;;;2.40;;
70233;SDS011;57622;42.630;23.378;2022-08-03T09:39:41;8.47;;;2.60;;
70233;SDS011;57622;42.630;23.378;2022-08-03T09:42:07;7.32;;;2.63;;
70233;SDS011;57622;42.630;23.378;2022-08-03T09:44:39;11.05;;;2.90;;
70233;SDS011;57622;42.630;23.378;2022-08-03T09:47:06;5.30;;;2.40;;
70233;SDS011;57622;42.630;23.378;2022-08-03T09:49:32;3.78;;;2.20;;
70233;SDS011;57622;42.630;23.378;2022-08-03T09:52:01;5.88;;;2.30;;
70233;SDS011;57622;42.630;23.378;2022-08-03T09:54:37;5.70;;;2.10;;
70233;SDS011;57622;42.630;23.378;2022-08-03T09:57:03;5.82;;;2.30;;
70233;SDS011;57622;42.630;23.378;2022-08-03T09:59:29;5.95;;;2.70;;
70233;SDS011;57622;42.630;23.378;2022-08-03T10:01:57;6.13;;;2.50;;
70233;SDS011;57622;42.630;23.378;2022-08-03T10:04:23;7.07;;;2.60;;
70233;SDS011;57622;42.630;23.378;2022-08-03T10:07:03;5.78;;;2.50;;
70233;SDS011;57622;42.630;23.378;2022-08-03T10:09:30;7.38;;;2.65;;
70233;SDS011;57622;42.630;23.378;2022-08-03T10:11:55;7.75;;;2.47;;
70233;SDS011;57622;42.630;23.378;2022-08-03T10:14:21;7.95;;;2.83;;
70233;SDS011;57622;42.630;23.378;2022-08-03T10:16:47;6.75;;;2.40;;
70233;SDS011;57622;42.630;23.378;2022-08-03T10:19:13;7.80;;;2.53;;
70233;SDS011;57622;42.630;23.378;2022-08-03T10:21:40;6.50;;;2.47;;
70233;SDS011;57622;42.630;23.378;2022-08-03T10:24:10;7.97;;;2.60;;
70233;SDS011;57622;42.630;23.378;2022-08-03T10:26:38;8.15;;;2.90;;
70233;SDS011;57622;42.630;23.378;2022-08-03T10:29:08;7.70;;;3.00;;
70233;SDS011;57622;42.630;23.378;2022-08-03T10:31:43;6.60;;;2.70;;
70233;SDS011;57622;42.630;23.378;2022-08-03T10:36:41;5.15;;;2.50;;
70233;SDS011;57622;42.630;23.378;2022-08-03T10:39:07;7.22;;;2.60;;
70233;SDS011;57622;42.630;23.378;2022-08-03T10:41:35;5.75;;;2.45;;
70233;SDS011;57622;42.630;23.378;2022-08-03T10:44:08;5.47;;;2.33;;
70233;SDS011;57622;42.630;23.378;2022-08-03T10:46:35;6.90;;;2.70;;
70233;SDS011;57622;42.630;23.378;2022-08-03T10:49:03;7.78;;;2.60;;
70233;SDS011;57622;42.630;23.378;2022-08-03T10:51:30;5.45;;;2.30;;
70233;SDS011;57622;42.630;23.378;2022-08-03T10:53:56;6.20;;;2.47;;
70233;SDS011;57622;42.630;23.378;2022-08-03T10:59:19;7.20;;;2.40;;
70233;SDS011;57622;42.630;23.378;2022-08-03T11:02:10;4.25;;;2.40;;
70233;SDS011;57622;42.630;23.378;2022-08-03T11:04:38;6.23;;;2.33;;
70233;SDS011;57622;42.630;23.378;2022-08-03T11:09:43;6.30;;;2.25;;
70233;SDS011;57622;42.630;23.378;2022-08-03T11:12:24;10.20;;;2.97;;
70233;SDS011;57622;42.630;23.378;2022-08-03T11:14:50;10.77;;;6.78;;
70233;SDS011;57622;42.630;23.378;2022-08-03T11:17:17;11.73;;;7.57;;
70233;SDS011;57622;42.630;23.378;2022-08-03T11:19:44;9.00;;;4.25;;
70233;SDS011;57622;42.630;23.378;2022-08-03T11:22:13;4.90;;;2.25;;
70233;SDS011;57622;42.630;23.378;2022-08-03T11:30:03;6.33;;;3.27;;
70233;SDS011;57622;42.630;23.378;2022-08-03T11:40:32;4.13;;;2.17;;
70233;SDS011;57622;42.630;23.378;2022-08-03T11:45:55;5.45;;;2.13;;
70233;SDS011;57622;42.630;23.378;2022-08-03T11:48:35;5.25;;;2.20;;
70233;SDS011;57622;42.630;23.378;2022-08-03T11:51:17;4.10;;;2.20;;
70233;SDS011;57622;42.630;23.378;2022-08-03T11:53:50;7.97;;;2.60;;
70233;SDS011;57622;42.630;23.378;2022-08-03T11:56:17;4.63;;;2.30;;
70233;SDS011;57622;42.630;23.378;2022-08-03T11:58:47;6.05;;;2.35;;
70233;SDS011;57622;42.630;23.378;2022-08-03T12:01:17;4.10;;;2.13;;
70233;SDS011;57622;42.630;23.378;2022-08-03T12:03:44;9.73;;;4.82;;
70233;SDS011;57622;42.630;23.378;2022-08-03T12:06:10;4.60;;;2.50;;
70233;SDS011;57622;42.630;23.378;2022-08-03T12:08:38;9.23;;;4.67;;
70233;SDS011;57622;42.630;23.378;2022-08-03T12:11:05;9.73;;;5.47;;
70233;SDS011;57622;42.630;23.378;2022-08-03T12:13:37;9.15;;;4.35;;
70233;SDS011;57622;42.630;23.378;2022-08-03T12:16:04;10.48;;;3.80;;
70233;SDS011;57622;42.630;23.378;2022-08-03T12:18:29;6.65;;;2.75;;
70233;SDS011;57622;42.630;23.378;2022-08-03T12:21:09;13.25;;;7.90;;
70233;SDS011;57622;42.630;23.378;2022-08-03T12:23:36;10.38;;;7.00;;
70233;SDS011;57622;42.630;23.378;2022-08-03T12:26:03;12.65;;;8.10;;
70233;SDS011;57622;42.630;23.378;2022-08-03T12:28:30;9.48;;;5.10;;
70233;SDS011;57622;42.630;23.378;2022-08-03T12:30:59;6.03;;;2.67;;
70233;SDS011;57622;42.630;23.378;2022-08-03T12:33:27;7.32;;;3.30;;
70233;SDS011;57622;42.630;23.378;2022-08-03T12:36:06;8.43;;;3.97;;
70233;SDS011;57622;42.630;23.378;2022-08-03T12:38:34;7.00;;;2.75;;
70233;SDS011;57622;42.630;23.378;2022-08-03T12:41:08;6.47;;;2.63;;
70233;SDS011;57622;42.630;23.378;2022-08-03T12:43:49;6.72;;;2.47;;
70233;SDS011;57622;42.630;23.378;2022-08-03T12:46:16;6.45;;;2.95;;
70233;SDS011;57622;42.630;23.378;2022-08-03T12:51:28;6.45;;;2.45;;
70233;SDS011;57622;42.630;23.378;2022-08-03T12:53:56;4.80;;;2.40;;
70233;SDS011;57622;42.630;23.378;2022-08-03T12:56:22;3.97;;;2.25;;
70233;SDS011;57622;42.630;23.378;2022-08-03T12:58:48;4.03;;;2.20;;
70233;SDS011;57622;42.630;23.378;2022-08-03T13:01:14;6.75;;;3.33;;
70233;SDS011;57622;42.630;23.378;2022-08-03T13:03:45;9.05;;;4.07;;
70233;SDS011;57622;42.630;23.378;2022-08-03T13:06:21;8.52;;;3.25;;
70233;SDS011;57622;42.630;23.378;2022-08-03T13:08:48;6.68;;;3.30;;
70233;SDS011;57622;42.630;23.378;2022-08-03T13:11:26;10.95;;;5.30;;
70233;SDS011;57622;42.630;23.378;2022-08-03T13:13:52;10.40;;;5.68;;
70233;SDS011;57622;42.630;23.378;2022-08-03T13:16:19;13.48;;;8.60;;
70233;SDS011;57622;42.630;23.378;2022-08-03T13:18:48;13.25;;;9.27;;
70233;SDS011;57622;42.630;23.378;2022-08-03T13:21:16;8.25;;;4.32;;
70233;SDS011;57622;42.630;23.378;2022-08-03T13:23:42;9.27;;;3.05;;
70233;SDS011;57622;42.630;23.378;2022-08-03T13:26:09;13.20;;;3.45;;
70233;SDS011;57622;42.630;23.378;2022-08-03T13:28:36;9.43;;;3.30;;
70233;SDS011;57622;42.630;23.378;2022-08-03T13:31:02;10.73;;;3.72;;
70233;SDS011;57622;42.630;23.378;2022-08-03T13:33:28;8.93;;;2.80;;
70233;SDS011;57622;42.630;23.378;2022-08-03T13:35:53;15.38;;;3.92;;
70233;SDS011;57622;42.630;23.378;2022-08-03T13:38:19;6.45;;;2.60;;
70233;SDS011;57622;42.630;23.378;2022-08-03T13:40:45;6.72;;;2.45;;
70233;SDS011;57622;42.630;23.378;2022-08-03T13:43:10;11.38;;;2.88;;
70233;SDS011;57622;42.630;23.378;2022-08-03T13:45:36;7.25;;;2.67;;
70233;SDS011;57622;42.630;23.378;2022-08-03T13:48:02;7.82;;;2.67;;
70233;SDS011;57622;42.630;23.378;2022-08-03T13:50:28;6.07;;;2.78;;
70233;SDS011;57622;42.630;23.378;2022-08-03T13:52:55;6.90;;;2.70;;
70233;SDS011;57622;42.630;23.378;2022-08-03T13:55:21;6.70;;;2.67;;
70233;SDS011;57622;42.630;23.378;2022-08-03T13:57:47;11.63;;;2.90;;
70233;SDS011;57622;42.630;23.378;2022-08-03T14:00:12;8.02;;;3.05;;
70233;SDS011;57622;42.630;23.378;2022-08-03T14:02:38;8.35;;;3.20;;
70233;SDS011;57622;42.630;23.378;2022-08-03T14:05:04;7.78;;;2.80;;
70233;SDS011;57622;42.630;23.378;2022-08-03T14:07:30;6.30;;;2.63;;
70233;SDS011;57622;42.630;23.378;2022-08-03T14:09:55;6.75;;;2.67;;
70233;SDS011;57622;42.630;23.378;2022-08-03T14:12:20;4.85;;;2.58;;
70233;SDS011;57622;42.630;23.378;2022-08-03T14:14:46;5.22;;;2.50;;
70233;SDS011;57622;42.630;23.378;2022-08-03T14:17:11;7.32;;;2.88;;
70233;SDS011;57622;42.630;23.378;2022-08-03T14:19:37;7.18;;;2.70;;
70233;SDS011;57622;42.630;23.378;2022-08-03T14:22:02;9.60;;;2.80;;
70233;SDS011;57622;42.630;23.378;2022-08-03T14:24:28;7.88;;;2.75;;
70233;SDS011;57622;42.630;23.378;2022-08-03T14:26:53;14.45;;;2.70;;
70233;SDS011;57622;42.630;23.378;2022-08-03T14:29:19;10.57;;;2.75;;
70233;SDS011;57622;42.630;23.378;2022-08-03T14:31:44;6.28;;;2.78;;
70233;SDS011;57622;42.630;23.378;2022-08-03T14:34:09;8.35;;;2.80;;
70233;SDS011;57622;42.630;23.378;2022-08-03T14:36:35;10.85;;;2.95;;
70233;SDS011;57622;42.630;23.378;2022-08-03T14:39:00;7.07;;;3.70;;
70233;SDS011;57622;42.630;23.378;2022-08-03T14:41:26;8.57;;;4.78;;
70233;SDS011;57622;42.630;23.378;2022-08-03T14:43:51;5.75;;;3.10;;
70233;SDS011;57622;42.630;23.378;2022-08-03T14:46:17;7.50;;;2.80;;
70233;SDS011;57622;42.630;23.378;2022-08-03T14:48:42;6.63;;;2.70;;
70233;SDS011;57622;42.630;23.378;2022-08-03T14:51:08;6.22;;;2.75;;
70233;SDS011;57622;42.630;23.378;2022-08-03T14:53:34;5.50;;;2.45;;
70233;SDS011;57622;42.630;23.378;2022-08-03T14:55:59;5.75;;;2.80;;
70233;SDS011;57622;42.630;23.378;2022-08-03T14:58:25;7.15;;;2.60;;
70233;SDS011;57622;42.630;23.378;2022-08-03T15:00:51;5.38;;;2.70;;
70233;SDS011;57622;42.630;23.378;2022-08-03T15:03:18;6.78;;;3.00;;
70233;SDS011;57622;42.630;23.378;2022-08-03T15:05:47;6.10;;;2.70;;
70233;SDS011;57622;42.630;23.378;2022-08-03T15:08:13;4.60;;;2.50;;
70233;SDS011;57622;42.630;23.378;2022-08-03T15:10:38;4.40;;;2.40;;
70233;SDS011;57622;42.630;23.378;2022-08-03T15:13:04;8.93;;;2.88;;
70233;SDS011;57622;42.630;23.378;2022-08-03T15:15:29;5.25;;;2.70;;
70233;SDS011;57622;42.630;23.378;2022-08-03T15:17:55;9.13;;;3.50;;
70233;SDS011;57622;42.630;23.378;2022-08-03T15:20:20;9.63;;;4.55;;
70233;SDS011;57622;42.630;23.378;2022-08-03T15:22:46;14.43;;;3.90;;
70233;SDS011;57622;42.630;23.378;2022-08-03T15:25:11;6.40;;;2.83;;
70233;SDS011;57622;42.630;23.378;2022-08-03T15:27:37;7.57;;;2.20;;